sensor_id;sensor_type;location;lat;lon;timestamp;temperature;humidity
13835;DHT22;6988;52.614;13.500;2024-02-16T00:02:41;10.00;99.90
13835;DHT22;6988;52.614;13.500;2024-02-16T00:07:34;9.90;99.90
13835;DHT22;6988;52.614;13.500;2024-02-16T00:12:28;9.80;99.90
13835;DHT22;6988;52.614;13.500;2024-02-16T00:17:20;9.80;99.90
13835;DHT22;6988;52.614;13.500;2024-02-16T00:22:14;9.70;99.90
13835;DHT22;6988;52.614;13.500;2024-02-16T00:27:05;9.70;99.90
13835;DHT22;6988;52.614;13.500;2024-02-16T00:31:57;9.70;99.90
13835;DHT22;6988;52.614;13.500;2024-02-16T00:36:49;9.60;99.90
13835;DHT22;6988;52.614;13.500;2024-02-16T00:41:42;9.60;99.90
13835;DHT22;6988;52.614;13.500;2024-02-16T00:46:36;9.50;99.90
13835;DHT22;6988;52.614;13.500;2024-02-16T00:51:28;9.40;99.90
13835;DHT22;6988;52.614;13.500;2024-02-16T00:56:19;9.40;99.90
13835;DHT22;6988;52.614;13.500;2024-02-16T01:01:13;9.40;99.90
13835;DHT22;6988;52.614;13.500;2024-02-16T01:06:05;9.50;99.90
13835;DHT22;6988;52.614;13.500;2024-02-16T01:10:59;9.40;99.90
13835;DHT22;6988;52.614;13.500;2024-02-16T01:15:51;9.40;99.90
13835;DHT22;6988;52.614;13.500;2024-02-16T01:20:44;9.20;99.90
13835;DHT22;6988;52.614;13.500;2024-02-16T01:25:36;9.30;99.90
13835;DHT22;6988;52.614;13.500;2024-02-16T01:30:28;9.20;99.90
13835;DHT22;6988;52.614;13.500;2024-02-16T01:35:19;9.10;99.90
13835;DHT22;6988;52.614;13.500;2024-02-16T01:40:13;9.10;99.90
13835;DHT22;6988;52.614;13.500;2024-02-16T01:45:08;9.00;99.90
13835;DHT22;6988;52.614;13.500;2024-02-16T01:50:01;9.00;99.90
13835;DHT22;6988;52.614;13.500;2024-02-16T01:54:53;8.90;99.90
13835;DHT22;6988;52.614;13.500;2024-02-16T01:59:46;8.90;99.90
13835;DHT22;6988;52.614;13.500;2024-02-16T02:04:38;8.80;99.90
13835;DHT22;6988;52.614;13.500;2024-02-16T02:09:30;8.70;99.90
13835;DHT22;6988;52.614;13.500;2024-02-16T02:14:24;8.80;99.90
13835;DHT22;6988;52.614;13.500;2024-02-16T02:19:17;8.70;99.90
13835;DHT22;6988;52.614;13.500;2024-02-16T02:24:11;8.90;99.90
13835;DHT22;6988;52.614;13.500;2024-02-16T02:29:02;8.90;99.90
13835;DHT22;6988;52.614;13.500;2024-02-16T02:33:55;8.80;99.90
13835;DHT22;6988;52.614;13.500;2024-02-16T02:38:47;8.80;99.90
13835;DHT22;6988;52.614;13.500;2024-02-16T02:43:40;8.90;99.90
13835;DHT22;6988;52.614;13.500;2024-02-16T02:48:32;8.90;99.90
13835;DHT22;6988;52.614;13.500;2024-02-16T02:53:23;9.10;99.90
13835;DHT22;6988;52.614;13.500;2024-02-16T02:58:16;9.10;99.90
13835;DHT22;6988;52.614;13.500;2024-02-16T03:03:09;9.10;99.90
13835;DHT22;6988;52.614;13.500;2024-02-16T03:08:01;9.10;99.90
13835;DHT22;6988;52.614;13.500;2024-02-16T03:12:53;9.00;99.90
13835;DHT22;6988;52.614;13.500;2024-02-16T03:17:45;8.90;99.90
13835;DHT22;6988;52.614;13.500;2024-02-16T03:22:38;8.80;99.90
13835;DHT22;6988;52.614;13.500;2024-02-16T03:27:30;8.80;99.90
13835;DHT22;6988;52.614;13.500;2024-02-16T03:32:22;8.80;99.90
13835;DHT22;6988;52.614;13.500;2024-02-16T03:37:14;8.70;99.90
13835;DHT22;6988;52.614;13.500;2024-02-16T03:42:08;8.70;99.90
13835;DHT22;6988;52.614;13.500;2024-02-16T03:47:00;8.60;99.90
13835;DHT22;6988;52.614;13.500;2024-02-16T03:51:52;8.60;99.90
13835;DHT22;6988;52.614;13.500;2024-02-16T03:56:44;8.50;99.90
13835;DHT22;6988;52.614;13.500;2024-02-16T04:01:37;8.40;99.90
13835;DHT22;6988;52.614;13.500;2024-02-16T04:06:29;8.40;99.90
13835;DHT22;6988;52.614;13.500;2024-02-16T04:11:21;8.30;99.90
13835;DHT22;6988;52.614;13.500;2024-02-16T04:16:13;8.20;99.90
13835;DHT22;6988;52.614;13.500;2024-02-16T04:21:06;8.10;99.90
13835;DHT22;6988;52.614;13.500;2024-02-16T04:25:58;8.00;99.90
13835;DHT22;6988;52.614;13.500;2024-02-16T04:30:49;8.00;99.90
13835;DHT22;6988;52.614;13.500;2024-02-16T04:35:41;8.00;99.90
13835;DHT22;6988;52.614;13.500;2024-02-16T04:40:38;7.90;99.90
13835;DHT22;6988;52.614;13.500;2024-02-16T04:45:30;7.90;99.90
13835;DHT22;6988;52.614;13.500;2024-02-16T04:50:22;8.10;99.90
13835;DHT22;6988;52.614;13.500;2024-02-16T04:55:13;8.40;99.90
13835;DHT22;6988;52.614;13.500;2024-02-16T05:00:08;8.70;99.90
13835;DHT22;6988;52.614;13.500;2024-02-16T05:05:00;8.70;99.90
13835;DHT22;6988;52.614;13.500;2024-02-16T05:09:53;8.60;99.90
13835;DHT22;6988;52.614;13.500;2024-02-16T05:14:49;8.80;99.90
13835;DHT22;6988;52.614;13.500;2024-02-16T05:19:42;8.70;99.90
13835;DHT22;6988;52.614;13.500;2024-02-16T05:24:33;8.70;99.90
13835;DHT22;6988;52.614;13.500;2024-02-16T05:29:25;8.80;99.90
13835;DHT22;6988;52.614;13.500;2024-02-16T05:34:18;8.70;99.90
13835;DHT22;6988;52.614;13.500;2024-02-16T05:39:11;8.70;99.90
13835;DHT22;6988;52.614;13.500;2024-02-16T05:44:16;8.70;99.90
13835;DHT22;6988;52.614;13.500;2024-02-16T05:49:08;8.50;99.90
13835;DHT22;6988;52.614;13.500;2024-02-16T05:54:01;8.50;99.90
13835;DHT22;6988;52.614;13.500;2024-02-16T05:58:54;8.40;99.90
13835;DHT22;6988;52.614;13.500;2024-02-16T06:03:46;8.50;99.90
13835;DHT22;6988;52.614;13.500;2024-02-16T06:08:37;8.60;99.90
13835;DHT22;6988;52.614;13.500;2024-02-16T06:13:29;8.60;99.90
13835;DHT22;6988;52.614;13.500;2024-02-16T06:18:23;8.50;99.90
13835;DHT22;6988;52.614;13.500;2024-02-16T06:23:15;8.50;99.90
13835;DHT22;6988;52.614;13.500;2024-02-16T06:28:08;8.50;99.90
13835;DHT22;6988;52.614;13.500;2024-02-16T06:33:00;8.50;99.90
13835;DHT22;6988;52.614;13.500;2024-02-16T06:37:53;8.50;99.90
13835;DHT22;6988;52.614;13.500;2024-02-16T06:42:45;8.50;99.90
13835;DHT22;6988;52.614;13.500;2024-02-16T06:47:37;8.60;99.90
13835;DHT22;6988;52.614;13.500;2024-02-16T06:52:29;8.70;99.90
13835;DHT22;6988;52.614;13.500;2024-02-16T06:57:22;8.90;99.90
13835;DHT22;6988;52.614;13.500;2024-02-16T07:02:15;8.80;99.90
13835;DHT22;6988;52.614;13.500;2024-02-16T07:07:08;8.80;99.90
13835;DHT22;6988;52.614;13.500;2024-02-16T07:12:00;9.00;99.90
13835;DHT22;6988;52.614;13.500;2024-02-16T07:16:54;9.00;99.90
13835;DHT22;6988;52.614;13.500;2024-02-16T07:21:46;9.10;99.90
13835;DHT22;6988;52.614;13.500;2024-02-16T07:26:39;8.90;99.90
13835;DHT22;6988;52.614;13.500;2024-02-16T07:31:32;9.00;99.90
13835;DHT22;6988;52.614;13.500;2024-02-16T07:36:26;9.20;99.90
13835;DHT22;6988;52.614;13.500;2024-02-16T07:41:18;9.30;99.90
13835;DHT22;6988;52.614;13.500;2024-02-16T07:46:09;9.30;99.90
13835;DHT22;6988;52.614;13.500;2024-02-16T07:51:01;9.40;99.90
13835;DHT22;6988;52.614;13.500;2024-02-16T07:55:55;9.50;99.90
13835;DHT22;6988;52.614;13.500;2024-02-16T08:00:46;9.50;99.90
13835;DHT22;6988;52.614;13.500;2024-02-16T08:05:38;9.70;99.90
13835;DHT22;6988;52.614;13.500;2024-02-16T08:10:30;9.90;99.90
13835;DHT22;6988;52.614;13.500;2024-02-16T08:15:23;10.20;99.90
13835;DHT22;6988;52.614;13.500;2024-02-16T08:20:16;10.30;99.90
13835;DHT22;6988;52.614;13.500;2024-02-16T08:25:08;10.60;99.90
13835;DHT22;6988;52.614;13.500;2024-02-16T08:30:01;11.00;99.90
13835;DHT22;6988;52.614;13.500;2024-02-16T08:34:55;11.10;99.90
13835;DHT22;6988;52.614;13.500;2024-02-16T08:39:48;11.20;99.90
13835;DHT22;6988;52.614;13.500;2024-02-16T08:44:40;11.40;99.90
13835;DHT22;6988;52.614;13.500;2024-02-16T08:49:33;11.80;99.90
13835;DHT22;6988;52.614;13.500;2024-02-16T08:54:26;11.70;99.90
13835;DHT22;6988;52.614;13.500;2024-02-16T08:59:18;11.70;99.90
13835;DHT22;6988;52.614;13.500;2024-02-16T09:04:10;12.00;99.90
13835;DHT22;6988;52.614;13.500;2024-02-16T09:09:02;12.50;99.90
13835;DHT22;6988;52.614;13.500;2024-02-16T09:13:56;12.90;99.90
13835;DHT22;6988;52.614;13.500;2024-02-16T09:18:48;13.00;99.90
13835;DHT22;6988;52.614;13.500;2024-02-16T09:23:40;13.00;99.90
13835;DHT22;6988;52.614;13.500;2024-02-16T09:28:32;12.70;99.90
13835;DHT22;6988;52.614;13.500;2024-02-16T09:33:25;12.40;99.90
13835;DHT22;6988;52.614;13.500;2024-02-16T09:38:17;12.30;99.90
13835;DHT22;6988;52.614;13.500;2024-02-16T09:43:20;12.30;99.90
13835;DHT22;6988;52.614;13.500;2024-02-16T09:48:15;12.10;99.90
13835;DHT22;6988;52.614;13.500;2024-02-16T09:53:09;12.20;99.90
13835;DHT22;6988;52.614;13.500;2024-02-16T09:58:02;12.20;99.90
13835;DHT22;6988;52.614;13.500;2024-02-16T10:02:55;12.20;99.90
13835;DHT22;6988;52.614;13.500;2024-02-16T10:07:47;12.20;99.90
13835;DHT22;6988;52.614;13.500;2024-02-16T10:12:41;12.40;99.90
13835;DHT22;6988;52.614;13.500;2024-02-16T10:17:33;12.40;99.90
13835;DHT22;6988;52.614;13.500;2024-02-16T10:22:25;12.60;99.90
13835;DHT22;6988;52.614;13.500;2024-02-16T10:27:17;12.70;99.90
13835;DHT22;6988;52.614;13.500;2024-02-16T10:32:11;12.90;99.90
13835;DHT22;6988;52.614;13.500;2024-02-16T10:37:04;13.00;99.90
13835;DHT22;6988;52.614;13.500;2024-02-16T10:41:58;13.00;99.90
13835;DHT22;6988;52.614;13.500;2024-02-16T10:46:52;13.00;99.90
13835;DHT22;6988;52.614;13.500;2024-02-16T10:51:50;13.10;99.90
13835;DHT22;6988;52.614;13.500;2024-02-16T10:56:47;13.20;99.90
13835;DHT22;6988;52.614;13.500;2024-02-16T11:01:40;13.20;99.90
13835;DHT22;6988;52.614;13.500;2024-02-16T11:06:32;13.20;99.90
13835;DHT22;6988;52.614;13.500;2024-02-16T11:11:26;13.10;99.90
13835;DHT22;6988;52.614;13.500;2024-02-16T11:16:18;13.10;99.90
13835;DHT22;6988;52.614;13.500;2024-02-16T11:21:12;13.20;99.90
13835;DHT22;6988;52.614;13.500;2024-02-16T11:26:09;13.10;99.90
13835;DHT22;6988;52.614;13.500;2024-02-16T11:31:04;13.30;99.90
13835;DHT22;6988;52.614;13.500;2024-02-16T11:35:58;13.20;99.90
13835;DHT22;6988;52.614;13.500;2024-02-16T11:40:56;13.40;99.90
13835;DHT22;6988;52.614;13.500;2024-02-16T11:45:49;13.60;99.90
13835;DHT22;6988;52.614;13.500;2024-02-16T11:50:42;14.00;99.90
13835;DHT22;6988;52.614;13.500;2024-02-16T11:55:34;14.20;99.90
13835;DHT22;6988;52.614;13.500;2024-02-16T12:00:26;14.20;99.90
13835;DHT22;6988;52.614;13.500;2024-02-16T12:05:18;14.40;99.90
13835;DHT22;6988;52.614;13.500;2024-02-16T12:10:11;14.40;99.90
13835;DHT22;6988;52.614;13.500;2024-02-16T12:15:05;14.60;99.90
13835;DHT22;6988;52.614;13.500;2024-02-16T12:19:58;14.70;99.90
13835;DHT22;6988;52.614;13.500;2024-02-16T12:24:50;14.90;99.90
13835;DHT22;6988;52.614;13.500;2024-02-16T12:29:43;15.30;99.90
13835;DHT22;6988;52.614;13.500;2024-02-16T12:34:35;15.60;99.90
13835;DHT22;6988;52.614;13.500;2024-02-16T12:39:27;15.90;99.90
13835;DHT22;6988;52.614;13.500;2024-02-16T12:44:19;16.20;99.90
13835;DHT22;6988;52.614;13.500;2024-02-16T12:49:13;16.40;99.90
13835;DHT22;6988;52.614;13.500;2024-02-16T12:54:05;16.50;99.90
13835;DHT22;6988;52.614;13.500;2024-02-16T12:58:58;16.40;99.90
13835;DHT22;6988;52.614;13.500;2024-02-16T13:03:52;16.40;99.90
13835;DHT22;6988;52.614;13.500;2024-02-16T13:08:45;16.40;99.90
13835;DHT22;6988;52.614;13.500;2024-02-16T13:13:36;16.30;99.90
13835;DHT22;6988;52.614;13.500;2024-02-16T13:18:28;16.30;99.90
13835;DHT22;6988;52.614;13.500;2024-02-16T13:23:20;16.20;99.90
13835;DHT22;6988;52.614;13.500;2024-02-16T13:28:13;16.10;99.90
13835;DHT22;6988;52.614;13.500;2024-02-16T13:33:06;16.10;99.90
13835;DHT22;6988;52.614;13.500;2024-02-16T13:37:59;15.90;99.90
13835;DHT22;6988;52.614;13.500;2024-02-16T13:42:51;16.00;99.90
13835;DHT22;6988;52.614;13.500;2024-02-16T13:47:47;16.00;99.90
13835;DHT22;6988;52.614;13.500;2024-02-16T13:52:39;16.00;99.90
13835;DHT22;6988;52.614;13.500;2024-02-16T13:57:30;16.10;99.90
13835;DHT22;6988;52.614;13.500;2024-02-16T14:02:22;16.10;99.90
13835;DHT22;6988;52.614;13.500;2024-02-16T14:07:15;16.20;99.90
13835;DHT22;6988;52.614;13.500;2024-02-16T14:12:08;16.20;99.90
13835;DHT22;6988;52.614;13.500;2024-02-16T14:16:59;16.20;99.90
13835;DHT22;6988;52.614;13.500;2024-02-16T14:21:51;16.10;99.90
13835;DHT22;6988;52.614;13.500;2024-02-16T14:26:44;16.10;99.90
13835;DHT22;6988;52.614;13.500;2024-02-16T14:31:36;16.00;99.90
13835;DHT22;6988;52.614;13.500;2024-02-16T14:36:28;15.80;99.90
13835;DHT22;6988;52.614;13.500;2024-02-16T14:41:20;15.80;99.90
13835;DHT22;6988;52.614;13.500;2024-02-16T14:46:15;15.70;99.90
13835;DHT22;6988;52.614;13.500;2024-02-16T14:51:07;15.60;99.90
13835;DHT22;6988;52.614;13.500;2024-02-16T14:55:58;15.60;99.90
13835;DHT22;6988;52.614;13.500;2024-02-16T15:00:50;15.60;99.90
13835;DHT22;6988;52.614;13.500;2024-02-16T15:05:43;15.40;99.90
13835;DHT22;6988;52.614;13.500;2024-02-16T15:10:35;15.40;99.90
13835;DHT22;6988;52.614;13.500;2024-02-16T15:15:27;15.30;99.90
13835;DHT22;6988;52.614;13.500;2024-02-16T15:20:19;15.20;99.90
13835;DHT22;6988;52.614;13.500;2024-02-16T15:25:14;15.10;99.90
13835;DHT22;6988;52.614;13.500;2024-02-16T15:30:07;15.30;99.90
13835;DHT22;6988;52.614;13.500;2024-02-16T15:34:59;15.10;99.90
13835;DHT22;6988;52.614;13.500;2024-02-16T15:39:51;15.10;99.90
13835;DHT22;6988;52.614;13.500;2024-02-16T15:44:48;15.00;99.90
13835;DHT22;6988;52.614;13.500;2024-02-16T15:49:39;14.90;99.90
13835;DHT22;6988;52.614;13.500;2024-02-16T15:54:31;14.90;99.90
13835;DHT22;6988;52.614;13.500;2024-02-16T15:59:23;14.80;99.90
13835;DHT22;6988;52.614;13.500;2024-02-16T16:04:17;14.80;99.90
13835;DHT22;6988;52.614;13.500;2024-02-16T16:09:09;14.80;99.90
13835;DHT22;6988;52.614;13.500;2024-02-16T16:14:01;14.80;99.90
13835;DHT22;6988;52.614;13.500;2024-02-16T16:18:53;14.70;99.90
13835;DHT22;6988;52.614;13.500;2024-02-16T16:23:47;14.80;99.90
13835;DHT22;6988;52.614;13.500;2024-02-16T16:28:38;14.60;99.90
13835;DHT22;6988;52.614;13.500;2024-02-16T16:33:30;14.60;99.90
13835;DHT22;6988;52.614;13.500;2024-02-16T16:38:22;14.60;99.90
13835;DHT22;6988;52.614;13.500;2024-02-16T16:43:15;14.50;99.90
13835;DHT22;6988;52.614;13.500;2024-02-16T16:48:08;14.40;99.90
13835;DHT22;6988;52.614;13.500;2024-02-16T16:53:00;14.30;99.90
13835;DHT22;6988;52.614;13.500;2024-02-16T16:57:51;14.30;99.90
13835;DHT22;6988;52.614;13.500;2024-02-16T17:02:45;14.20;99.90
13835;DHT22;6988;52.614;13.500;2024-02-16T17:07:37;14.20;99.90
13835;DHT22;6988;52.614;13.500;2024-02-16T17:12:29;14.20;99.90
13835;DHT22;6988;52.614;13.500;2024-02-16T17:17:21;14.10;99.90
13835;DHT22;6988;52.614;13.500;2024-02-16T17:22:15;14.10;99.90
13835;DHT22;6988;52.614;13.500;2024-02-16T17:27:07;14.00;99.90
13835;DHT22;6988;52.614;13.500;2024-02-16T17:31:59;14.10;99.90
13835;DHT22;6988;52.614;13.500;2024-02-16T17:36:52;14.00;99.90
13835;DHT22;6988;52.614;13.500;2024-02-16T17:41:45;13.80;99.90
13835;DHT22;6988;52.614;13.500;2024-02-16T17:46:37;13.90;99.90
13835;DHT22;6988;52.614;13.500;2024-02-16T17:51:29;13.90;99.90
13835;DHT22;6988;52.614;13.500;2024-02-16T17:56:22;13.90;99.90
13835;DHT22;6988;52.614;13.500;2024-02-16T18:01:15;13.90;99.90
13835;DHT22;6988;52.614;13.500;2024-02-16T18:06:07;13.80;99.90
13835;DHT22;6988;52.614;13.500;2024-02-16T18:10:59;13.70;99.90
13835;DHT22;6988;52.614;13.500;2024-02-16T18:15:51;13.80;99.90
13835;DHT22;6988;52.614;13.500;2024-02-16T18:20:46;13.50;99.90
13835;DHT22;6988;52.614;13.500;2024-02-16T18:25:39;13.60;99.90
13835;DHT22;6988;52.614;13.500;2024-02-16T18:30:31;13.70;99.90
13835;DHT22;6988;52.614;13.500;2024-02-16T18:35:22;13.70;99.90
13835;DHT22;6988;52.614;13.500;2024-02-16T18:40:16;13.70;99.90
13835;DHT22;6988;52.614;13.500;2024-02-16T18:45:08;13.80;99.90
13835;DHT22;6988;52.614;13.500;2024-02-16T18:50:00;13.90;99.90
13835;DHT22;6988;52.614;13.500;2024-02-16T18:54:52;13.90;99.90
13835;DHT22;6988;52.614;13.500;2024-02-16T18:59:45;13.90;99.90
13835;DHT22;6988;52.614;13.500;2024-02-16T19:04:36;13.90;99.90
13835;DHT22;6988;52.614;13.500;2024-02-16T19:09:28;14.00;99.90
13835;DHT22;6988;52.614;13.500;2024-02-16T19:14:21;14.00;99.90
13835;DHT22;6988;52.614;13.500;2024-02-16T19:19:15;14.00;99.90
13835;DHT22;6988;52.614;13.500;2024-02-16T19:24:07;14.00;99.90
13835;DHT22;6988;52.614;13.500;2024-02-16T19:28:59;14.00;99.90
13835;DHT22;6988;52.614;13.500;2024-02-16T19:33:51;14.00;99.90
13835;DHT22;6988;52.614;13.500;2024-02-16T19:38:45;13.90;99.90
13835;DHT22;6988;52.614;13.500;2024-02-16T19:43:37;13.80;99.90
13835;DHT22;6988;52.614;13.500;2024-02-16T19:48:29;13.70;99.90
13835;DHT22;6988;52.614;13.500;2024-02-16T19:53:21;13.60;99.90
13835;DHT22;6988;52.614;13.500;2024-02-16T19:58:14;13.50;99.90
13835;DHT22;6988;52.614;13.500;2024-02-16T20:03:06;13.40;99.90
13835;DHT22;6988;52.614;13.500;2024-02-16T20:07:57;13.40;99.90
13835;DHT22;6988;52.614;13.500;2024-02-16T20:12:49;13.20;99.90
13835;DHT22;6988;52.614;13.500;2024-02-16T20:17:42;13.30;99.90
13835;DHT22;6988;52.614;13.500;2024-02-16T20:22:35;13.30;99.90
13835;DHT22;6988;52.614;13.500;2024-02-16T20:27:26;13.20;99.90
13835;DHT22;6988;52.614;13.500;2024-02-16T20:32:18;13.10;99.90
13835;DHT22;6988;52.614;13.500;2024-02-16T20:37:13;13.20;99.90
13835;DHT22;6988;52.614;13.500;2024-02-16T20:42:05;13.10;99.90
13835;DHT22;6988;52.614;13.500;2024-02-16T20:46:57;13.10;99.90
13835;DHT22;6988;52.614;13.500;2024-02-16T20:51:49;13.10;99.90
13835;DHT22;6988;52.614;13.500;2024-02-16T20:56:43;13.10;99.90
13835;DHT22;6988;52.614;13.500;2024-02-16T21:01:35;13.00;99.90
13835;DHT22;6988;52.614;13.500;2024-02-16T21:06:27;12.90;99.90
13835;DHT22;6988;52.614;13.500;2024-02-16T21:11:19;12.90;99.90
13835;DHT22;6988;52.614;13.500;2024-02-16T21:16:12;12.70;99.90
13835;DHT22;6988;52.614;13.500;2024-02-16T21:21:04;12.80;99.90
13835;DHT22;6988;52.614;13.500;2024-02-16T21:25:56;12.90;99.90
13835;DHT22;6988;52.614;13.500;2024-02-16T21:30:48;12.80;99.90
13835;DHT22;6988;52.614;13.500;2024-02-16T21:35:41;12.70;99.90
13835;DHT22;6988;52.614;13.500;2024-02-16T21:40:33;12.80;99.90
13835;DHT22;6988;52.614;13.500;2024-02-16T21:45:25;12.80;99.90
13835;DHT22;6988;52.614;13.500;2024-02-16T21:50:17;12.80;99.90
13835;DHT22;6988;52.614;13.500;2024-02-16T21:55:11;12.80;99.90
13835;DHT22;6988;52.614;13.500;2024-02-16T22:00:04;12.80;99.90
13835;DHT22;6988;52.614;13.500;2024-02-16T22:04:59;12.70;99.90
13835;DHT22;6988;52.614;13.500;2024-02-16T22:09:51;12.60;99.90
13835;DHT22;6988;52.614;13.500;2024-02-16T22:14:44;12.60;99.90
13835;DHT22;6988;52.614;13.500;2024-02-16T22:19:36;12.60;99.90
13835;DHT22;6988;52.614;13.500;2024-02-16T22:24:28;12.60;99.90
13835;DHT22;6988;52.614;13.500;2024-02-16T22:29:20;12.50;99.90
13835;DHT22;6988;52.614;13.500;2024-02-16T22:34:13;12.50;99.90
13835;DHT22;6988;52.614;13.500;2024-02-16T22:39:05;12.30;99.90
13835;DHT22;6988;52.614;13.500;2024-02-16T22:43:57;12.40;99.90
13835;DHT22;6988;52.614;13.500;2024-02-16T23:04:04;12.20;99.90
13835;DHT22;6988;52.614;13.500;2024-02-16T23:08:58;12.20;99.90
13835;DHT22;6988;52.614;13.500;2024-02-16T23:13:50;12.10;99.90
13835;DHT22;6988;52.614;13.500;2024-02-16T23:18:42;12.10;99.90
13835;DHT22;6988;52.614;13.500;2024-02-16T23:23:36;12.10;99.90
13835;DHT22;6988;52.614;13.500;2024-02-16T23:28:28;12.20;99.90
13835;DHT22;6988;52.614;13.500;2024-02-16T23:33:20;12.10;99.90
13835;DHT22;6988;52.614;13.500;2024-02-16T23:38:12;12.10;99.90
13835;DHT22;6988;52.614;13.500;2024-02-16T23:43:09;12.10;99.90
13835;DHT22;6988;52.614;13.500;2024-02-16T23:48:02;12.10;99.90
13835;DHT22;6988;52.614;13.500;2024-02-16T23:52:54;12.00;99.90
13835;DHT22;6988;52.614;13.500;2024-02-16T23:57:46;12.00;99.90
